Time;durP1;ratioP1;P1;durP2;ratioP2;P2;SDS_P1;SDS_P2;PMS_P1;PMS_P2;Temp;Humidity;BMP_temperature;BMP_pressure;BME280_temperature;BME280_humidity;BME280_pressure;Samples;Min_cycle;Max_cycle;Signal;HPM_P1;HPM_P2
2023/07/13 00:02:07;;;;;;;8.88;2.70;;;16.70;99.90;;;;;;5055822;28;20591;-57
2023/07/13 00:04:33;;;;;;;9.13;2.47;;;16.70;99.90;;;;;;5055714;28;20175;-57
2023/07/13 00:06:59;;;;;;;6.97;2.17;;;16.70;99.90;;;;;;5055682;28;20640;-57
2023/07/13 00:09:25;;;;;;;5.35;2.20;;;16.50;99.90;;;;;;5055651;28;20211;-57
2023/07/13 00:11:56;;;;;;;5.60;2.20;;;16.50;99.90;;;;;;5055352;28;20175;-57
2023/07/13 00:14:23;;;;;;;6.72;2.40;;;16.50;99.90;;;;;;5055655;28;20285;-58
2023/07/13 00:16:48;;;;;;;8.07;2.28;;;16.50;99.90;;;;;;5055519;28;20195;-58
2023/07/13 00:19:14;;;;;;;5.80;2.08;;;16.50;99.90;;;;;;5055585;28;20734;-58
2023/07/13 00:21:41;;;;;;;10.55;2.45;;;16.50;99.90;;;;;;5055416;28;20318;-58
2023/07/13 00:24:12;;;;;;;7.63;2.25;;;16.40;99.90;;;;;;5055344;28;20171;-58
2023/07/13 00:26:38;;;;;;;6.63;2.38;;;16.40;99.90;;;;;;5055348;28;20179;-58
2023/07/13 00:29:06;;;;;;;7.47;2.28;;;16.40;99.90;;;;;;5055557;28;20299;-58
2023/07/13 00:31:31;;;;;;;7.22;2.40;;;16.40;99.90;;;;;;5055274;28;20195;-58
2023/07/13 00:33:57;;;;;;;8.32;2.33;;;16.30;99.90;;;;;;5055183;28;20210;-58
2023/07/13 00:36:23;;;;;;;5.97;2.65;;;16.30;99.90;;;;;;5055157;28;20178;-58
2023/07/13 00:38:48;;;;;;;6.93;2.63;;;16.20;99.90;;;;;;5054988;28;20290;-58
2023/07/13 00:41:14;;;;;;;8.23;2.70;;;16.10;99.90;;;;;;5055087;28;20180;-58
2023/07/13 00:43:40;;;;;;;7.90;2.65;;;16.10;99.90;;;;;;5054979;28;20187;-58
2023/07/13 00:46:27;;;;;;;7.97;2.55;;;16.10;99.90;;;;;;5054981;28;20168;-58
2023/07/13 00:48:57;;;;;;;7.78;2.47;;;16.00;99.90;;;;;;5054773;28;20190;-58
2023/07/13 00:51:31;;;;;;;5.55;2.40;;;16.00;99.90;;;;;;5054844;28;20163;-58
2023/07/13 00:54:01;;;;;;;7.13;2.60;;;16.00;99.90;;;;;;5054821;28;20170;-58
2023/07/13 00:56:28;;;;;;;8.23;2.50;;;16.00;99.90;;;;;;5054748;28;20172;-58
2023/07/13 00:58:55;;;;;;;5.80;2.40;;;16.10;99.90;;;;;;5054665;28;20235;-58
2023/07/13 01:01:20;;;;;;;6.82;2.70;;;16.10;99.90;;;;;;5054645;28;20181;-58
2023/07/13 01:03:46;;;;;;;7.18;2.63;;;16.00;99.90;;;;;;5054623;28;20257;-58
2023/07/13 01:06:12;;;;;;;6.75;2.58;;;15.90;99.90;;;;;;5054618;28;20183;-58
2023/07/13 01:08:39;;;;;;;8.38;2.92;;;15.90;99.90;;;;;;5054630;28;20175;-58
2023/07/13 01:11:07;;;;;;;7.05;2.65;;;15.80;99.90;;;;;;5054410;28;20191;-58
2023/07/13 01:13:33;;;;;;;5.90;2.80;;;15.90;99.90;;;;;;5054425;28;20179;-58
2023/07/13 01:16:03;;;;;;;6.30;2.47;;;15.90;99.90;;;;;;5054843;28;20508;-58
2023/07/13 01:18:29;;;;;;;9.00;2.85;;;15.80;99.90;;;;;;5054272;28;20640;-58
2023/07/13 01:21:01;;;;;;;7.72;2.60;;;15.70;99.90;;;;;;5054289;28;20262;-58
2023/07/13 01:23:28;;;;;;;8.13;2.75;;;15.70;99.90;;;;;;5053934;28;20667;-58
2023/07/13 01:25:55;;;;;;;12.38;3.45;;;15.70;99.90;;;;;;5054153;28;20237;-58
2023/07/13 01:28:22;;;;;;;8.00;2.90;;;15.70;99.90;;;;;;5054028;28;20187;-58
2023/07/13 01:30:47;;;;;;;10.43;2.78;;;15.70;99.90;;;;;;5053827;28;20171;-58
2023/07/13 01:33:16;;;;;;;10.13;2.90;;;15.70;99.90;;;;;;5054234;28;20179;-58
2023/07/13 01:35:42;;;;;;;8.60;3.10;;;15.80;99.90;;;;;;5054064;28;20171;-58
2023/07/13 01:38:09;;;;;;;8.00;2.90;;;15.80;99.90;;;;;;5053920;28;20171;-58
2023/07/13 01:40:35;;;;;;;9.00;3.20;;;15.80;99.90;;;;;;5053805;28;20218;-58
2023/07/13 01:43:01;;;;;;;7.07;2.97;;;15.90;99.90;;;;;;5053905;28;20175;-58
2023/07/13 01:45:27;;;;;;;8.38;3.10;;;15.80;99.90;;;;;;5053568;28;20543;-58
2023/07/13 01:47:52;;;;;;;8.00;2.95;;;15.80;99.90;;;;;;5053809;28;20171;-58
2023/07/13 01:50:18;;;;;;;7.88;2.83;;;15.90;99.90;;;;;;5053750;28;20183;-58
2023/07/13 01:52:44;;;;;;;9.80;3.45;;;15.80;99.90;;;;;;5053652;28;20608;-58
2023/07/13 01:55:10;;;;;;;10.57;3.10;;;15.80;99.90;;;;;;5053730;28;20186;-58
2023/07/13 01:57:35;;;;;;;10.48;3.35;;;15.70;99.90;;;;;;5053541;28;20183;-58
2023/07/13 02:00:04;;;;;;;9.90;3.40;;;15.70;99.90;;;;;;5053469;28;20584;-58
2023/07/13 02:02:30;;;;;;;9.25;3.28;;;15.70;99.90;;;;;;5053209;28;20181;-58
2023/07/13 02:04:56;;;;;;;9.40;3.20;;;15.70;99.90;;;;;;5053506;28;20178;-58
2023/07/13 02:07:22;;;;;;;6.50;3.00;;;15.70;99.90;;;;;;5053496;28;20509;-58
2023/07/13 02:09:48;;;;;;;8.13;3.17;;;15.80;99.90;;;;;;5035660;28;20588;-58
2023/07/13 02:12:13;;;;;;;9.60;3.05;;;15.90;99.90;;;;;;5053219;28;20254;-58
2023/07/13 02:14:39;;;;;;;9.48;3.22;;;15.90;99.90;;;;;;5053010;28;20171;-58
2023/07/13 02:17:05;;;;;;;9.10;3.10;;;15.80;99.90;;;;;;5053143;28;20213;-57
2023/07/13 02:19:32;;;;;;;11.25;3.60;;;15.80;99.90;;;;;;5053321;28;20605;-58
2023/07/13 02:21:57;;;;;;;6.43;3.17;;;15.90;99.90;;;;;;5053344;28;20186;-58
2023/07/13 02:24:23;;;;;;;8.88;3.08;;;15.80;99.90;;;;;;5053076;28;20167;-58
2023/07/13 02:26:49;;;;;;;7.93;2.97;;;15.80;99.90;;;;;;5053009;28;20211;-58
2023/07/13 02:29:14;;;;;;;9.10;3.22;;;15.80;99.90;;;;;;5052984;28;20183;-58
2023/07/13 02:31:40;;;;;;;5.63;2.70;;;15.90;99.90;;;;;;5053207;28;20621;-58
2023/07/13 02:34:06;;;;;;;9.40;3.03;;;16.00;99.90;;;;;;5053215;28;20171;-58
2023/07/13 02:36:32;;;;;;;7.65;2.83;;;16.00;99.90;;;;;;5052893;28;20175;-58
2023/07/13 02:39:01;;;;;;;8.70;3.33;;;16.00;99.90;;;;;;5052844;28;20202;-58
2023/07/13 02:41:27;;;;;;;10.95;2.95;;;16.00;99.90;;;;;;5053414;28;20681;-58
2023/07/13 02:43:52;;;;;;;9.23;3.05;;;15.80;99.90;;;;;;5053251;28;20253;-58
2023/07/13 02:46:19;;;;;;;11.10;3.35;;;15.90;99.90;;;;;;5053098;28;20171;-58
2023/07/13 02:48:45;;;;;;;10.95;3.22;;;16.00;99.90;;;;;;5053011;28;20183;-58
2023/07/13 02:51:11;;;;;;;9.77;3.17;;;16.00;99.90;;;;;;5053074;28;20182;-58
2023/07/13 02:53:37;;;;;;;9.40;3.00;;;16.00;99.90;;;;;;5052981;28;20190;-58
2023/07/13 02:56:04;;;;;;;11.00;3.65;;;16.10;99.90;;;;;;5035192;28;20538;-58
2023/07/13 02:58:30;;;;;;;8.43;3.15;;;16.10;99.90;;;;;;5052988;28;20187;-58
2023/07/13 03:00:57;;;;;;;11.55;2.90;;;16.20;99.90;;;;;;5053037;28;20505;-58
2023/07/13 03:03:23;;;;;;;7.63;3.45;;;16.20;99.90;;;;;;5052983;28;20493;-57
2023/07/13 03:05:59;;;;;;;8.73;3.25;;;16.20;99.90;;;;;;5052865;28;20185;-58
2023/07/13 03:08:25;;;;;;;11.55;3.63;;;16.30;99.90;;;;;;5052971;28;20171;-57
2023/07/13 03:11:03;;;;;;;13.55;3.67;;;16.30;99.90;;;;;;5052637;28;20174;-57
2023/07/13 03:13:29;;;;;;;9.13;3.67;;;16.30;99.90;;;;;;5052932;28;20156;-57
2023/07/13 03:15:55;;;;;;;12.27;3.63;;;16.30;99.90;;;;;;5052865;28;20190;-57
2023/07/13 03:18:20;;;;;;;10.68;3.65;;;16.20;99.90;;;;;;5052503;28;20230;-57
2023/07/13 03:20:46;;;;;;;9.75;3.17;;;16.20;99.90;;;;;;5052537;28;20179;-57
2023/07/13 03:23:12;;;;;;;10.55;3.30;;;16.10;99.90;;;;;;5052506;28;20168;-57
2023/07/13 03:25:38;;;;;;;9.45;3.33;;;16.20;99.90;;;;;;5052686;28;20187;-58
2023/07/13 03:28:05;;;;;;;12.48;3.70;;;16.30;99.90;;;;;;5055353;28;20247;-57
2023/07/13 03:30:31;;;;;;;12.82;4.00;;;16.30;99.90;;;;;;5056390;28;20186;-57
2023/07/13 03:32:56;;;;;;;12.20;4.13;;;16.20;99.90;;;;;;5056356;28;20538;-57
2023/07/13 03:35:22;;;;;;;11.07;3.53;;;16.20;99.90;;;;;;5056348;28;20603;-57
2023/07/13 03:37:47;;;;;;;12.23;3.80;;;16.20;99.90;;;;;;5056298;28;20661;-57
2023/07/13 03:40:13;;;;;;;12.50;4.20;;;16.30;99.90;;;;;;5056180;28;20206;-57
2023/07/13 03:42:39;;;;;;;7.93;3.88;;;16.20;99.90;;;;;;5056168;28;20177;-57
2023/07/13 03:45:05;;;;;;;13.05;4.05;;;16.20;99.90;;;;;;5056374;28;20175;-57
2023/07/13 03:47:31;;;;;;;9.98;4.10;;;16.20;99.90;;;;;;5056051;28;20732;-57
2023/07/13 03:49:56;;;;;;;10.95;3.58;;;16.10;99.90;;;;;;5056048;28;20235;-57
2023/07/13 03:52:22;;;;;;;11.38;3.75;;;16.20;99.90;;;;;;5055727;28;20178;-57
2023/07/13 03:54:47;;;;;;;10.48;3.75;;;16.20;99.90;;;;;;5038321;28;20260;-58
2023/07/13 03:57:13;;;;;;;10.35;3.70;;;16.20;99.90;;;;;;5055901;28;20176;-57
2023/07/13 03:59:39;;;;;;;9.38;4.35;;;16.40;99.90;;;;;;5055798;28;20203;-58
2023/07/13 04:02:04;;;;;;;14.68;4.30;;;16.40;99.90;;;;;;5055851;28;20262;-57
2023/07/13 04:04:30;;;;;;;9.43;3.85;;;16.40;99.90;;;;;;5055744;28;20186;-57
2023/07/13 04:06:58;;;;;;;11.98;3.80;;;16.30;99.90;;;;;;5055775;28;20603;-57
2023/07/13 04:09:24;;;;;;;9.93;3.53;;;16.30;99.90;;;;;;5055661;28;20274;-57
2023/07/13 04:11:50;;;;;;;12.68;3.83;;;16.30;99.90;;;;;;5055635;28;20179;-58
2023/07/13 04:14:16;;;;;;;14.13;4.03;;;16.30;99.90;;;;;;5055562;28;20176;-58
2023/07/13 04:16:43;;;;;;;11.80;4.40;;;16.30;99.90;;;;;;5055527;28;20179;-58
2023/07/13 04:19:10;;;;;;;11.25;4.20;;;16.40;99.90;;;;;;5055630;28;20223;-58
2023/07/13 04:21:36;;;;;;;8.70;3.33;;;16.50;99.90;;;;;;5055448;28;20532;-57
2023/07/13 04:24:02;;;;;;;12.65;3.72;;;16.30;99.90;;;;;;5055124;28;20175;-58
2023/07/13 04:26:29;;;;;;;11.73;4.05;;;16.20;99.90;;;;;;5055300;28;20228;-58
2023/07/13 04:28:54;;;;;;;11.55;4.00;;;16.30;99.90;;;;;;5055029;28;20636;-58
2023/07/13 04:31:21;;;;;;;11.68;3.60;;;16.30;99.90;;;;;;5037493;28;20190;-58
2023/07/13 04:33:47;;;;;;;15.55;3.90;;;16.40;99.90;;;;;;5055230;28;20192;-58
2023/07/13 04:36:13;;;;;;;8.80;4.00;;;16.40;99.90;;;;;;5055199;28;20203;-58
2023/07/13 04:38:38;;;;;;;12.68;4.15;;;16.50;99.90;;;;;;5054741;28;20201;-58
2023/07/13 04:41:06;;;;;;;10.35;3.97;;;16.50;99.90;;;;;;5054795;28;20176;-58
2023/07/13 04:43:33;;;;;;;14.00;3.97;;;16.60;99.90;;;;;;5055133;28;20205;-58
2023/07/13 04:46:08;;;;;;;11.65;3.65;;;16.60;99.90;;;;;;5055056;28;20211;-58
2023/07/13 04:48:34;;;;;;;14.55;4.05;;;16.60;99.90;;;;;;5055024;28;20242;-58
2023/07/13 04:51:01;;;;;;;9.82;3.55;;;16.80;99.90;;;;;;5054924;28;20171;-58
2023/07/13 04:53:27;;;;;;;10.63;3.65;;;16.70;99.90;;;;;;5054904;28;20167;-58
2023/07/13 04:55:53;;;;;;;11.02;3.85;;;16.70;99.90;;;;;;5055002;28;20171;-58
2023/07/13 04:58:19;;;;;;;14.10;3.90;;;16.70;99.90;;;;;;5037184;28;20531;-58
2023/07/13 05:00:44;;;;;;;9.35;3.28;;;16.70;99.90;;;;;;5054655;28;20707;-58
2023/07/13 05:03:10;;;;;;;11.77;3.90;;;16.60;99.90;;;;;;5054317;28;20672;-58
2023/07/13 05:05:35;;;;;;;12.95;3.83;;;16.80;99.90;;;;;;5054594;28;20617;-58
2023/07/13 05:08:01;;;;;;;13.23;4.15;;;16.80;99.90;;;;;;5054621;28;20298;-58
2023/07/13 05:10:27;;;;;;;12.73;3.80;;;16.80;99.90;;;;;;5054503;28;20536;-57
2023/07/13 05:12:53;;;;;;;10.50;3.72;;;16.80;99.90;;;;;;5054456;28;20167;-58
2023/07/13 05:15:21;;;;;;;14.32;3.88;;;16.80;99.90;;;;;;5054334;28;20167;-57
2023/07/13 05:17:48;;;;;;;11.82;3.78;;;16.80;99.90;;;;;;5054208;28;20250;-57
2023/07/13 05:20:14;;;;;;;11.77;4.03;;;16.80;99.90;;;;;;5054270;28;20203;-57
2023/07/13 05:22:40;;;;;;;12.00;4.00;;;16.80;99.90;;;;;;5051601;28;20168;-57
2023/07/13 05:25:07;;;;;;;12.50;4.20;;;16.80;99.90;;;;;;5043901;28;20230;-58
2023/07/13 05:27:34;;;;;;;10.65;3.35;;;16.80;99.90;;;;;;5042368;28;20629;-58
2023/07/13 05:30:00;;;;;;;11.38;3.65;;;16.80;99.90;;;;;;5042437;28;20631;-58
2023/07/13 05:32:26;;;;;;;12.13;3.97;;;16.90;99.90;;;;;;5043761;28;20172;-58
2023/07/13 05:34:51;;;;;;;12.15;3.50;;;16.80;99.90;;;;;;5044354;28;20534;-58
2023/07/13 05:37:18;;;;;;;11.15;3.90;;;16.90;99.90;;;;;;5045439;28;20175;-58
2023/07/13 05:39:43;;;;;;;10.88;3.63;;;16.90;99.90;;;;;;5039336;28;20211;-58
2023/07/13 05:42:09;;;;;;;13.95;4.05;;;16.80;99.90;;;;;;5048043;28;20659;-58
2023/07/13 05:44:35;;;;;;;10.73;3.70;;;16.70;99.90;;;;;;5053579;28;20184;-58
2023/07/13 05:47:00;;;;;;;11.20;4.20;;;16.80;99.90;;;;;;5053369;28;20665;-58
2023/07/13 05:49:26;;;;;;;9.50;3.53;;;16.80;99.90;;;;;;5052921;28;20187;-58
2023/07/13 05:51:52;;;;;;;12.20;4.00;;;16.90;99.90;;;;;;5050090;28;20696;-58
2023/07/13 05:54:17;;;;;;;10.40;3.97;;;16.90;99.90;;;;;;5033917;28;20168;-58
2023/07/13 05:56:43;;;;;;;11.60;4.18;;;17.00;99.90;;;;;;5033455;28;20238;-58
2023/07/13 05:59:08;;;;;;;13.35;3.88;;;17.10;99.90;;;;;;5033482;28;20253;-58
2023/07/13 06:01:34;;;;;;;9.98;3.85;;;17.00;99.90;;;;;;5033540;28;20199;-58
2023/07/13 06:04:00;;;;;;;11.35;4.07;;;17.20;99.90;;;;;;5015725;28;20176;-58
2023/07/13 06:06:26;;;;;;;10.07;3.58;;;17.30;99.90;;;;;;5033018;28;20245;-58
2023/07/13 06:08:51;;;;;;;10.48;4.05;;;17.30;99.90;;;;;;5033423;28;20180;-58
2023/07/13 06:11:25;;;;;;;10.35;3.97;;;17.30;99.90;;;;;;5032989;28;20230;-58
2023/07/13 06:13:52;;;;;;;10.25;3.60;;;17.30;99.90;;;;;;5033088;28;20609;-57
2023/07/13 06:16:18;;;;;;;10.73;4.03;;;17.40;99.90;;;;;;5033235;28;20167;-58
2023/07/13 06:18:43;;;;;;;13.88;4.28;;;17.50;99.90;;;;;;5032984;28;20242;-58
2023/07/13 06:21:19;;;;;;;13.73;3.67;;;17.60;99.90;;;;;;5033123;28;20204;-58
2023/07/13 06:23:47;;;;;;;13.25;4.35;;;17.40;99.90;;;;;;5033257;28;20171;-58
2023/07/13 06:26:13;;;;;;;13.65;3.92;;;17.50;99.90;;;;;;5033198;28;20262;-58
2023/07/13 06:28:39;;;;;;;12.40;4.00;;;17.50;99.90;;;;;;5032882;28;20180;-57
2023/07/13 06:31:10;;;;;;;12.32;3.80;;;17.60;99.90;;;;;;5033122;28;20184;-57
2023/07/13 06:33:36;;;;;;;11.00;4.28;;;17.70;99.90;;;;;;5033151;28;20168;-57
2023/07/13 06:36:04;;;;;;;10.10;3.42;;;17.70;99.90;;;;;;5033053;28;20168;-57
2023/07/13 06:38:30;;;;;;;11.30;3.80;;;17.80;99.90;;;;;;5032861;28;20183;-57
2023/07/13 06:40:56;;;;;;;10.80;3.80;;;18.00;99.90;;;;;;5033033;28;20541;-57
2023/07/13 06:43:22;;;;;;;13.95;4.30;;;18.00;99.90;;;;;;5032979;28;20209;-57
2023/07/13 06:45:49;;;;;;;9.57;3.72;;;18.10;99.90;;;;;;5033097;28;20179;-57
2023/07/13 06:48:16;;;;;;;10.40;4.10;;;18.10;99.90;;;;;;5032957;28;20659;-58
2023/07/13 06:50:43;;;;;;;12.07;3.45;;;18.30;99.90;;;;;;5032679;28;20573;-58
2023/07/13 06:53:10;;;;;;;12.45;3.50;;;18.40;99.90;;;;;;5032855;28;20207;-58
2023/07/13 06:55:36;;;;;;;6.95;3.40;;;18.40;99.90;;;;;;5032654;28;20252;-58
2023/07/13 06:58:01;;;;;;;9.15;4.03;;;18.60;99.90;;;;;;5032406;28;20713;-58
2023/07/13 07:00:27;;;;;;;10.98;3.47;;;18.90;99.90;;;;;;5032542;28;20200;-58
2023/07/13 07:02:52;;;;;;;13.75;3.90;;;19.10;99.90;;;;;;5036673;28;20180;-58
2023/07/13 07:05:21;;;;;;;12.57;3.67;;;19.20;99.90;;;;;;5036255;28;20180;-58
2023/07/13 07:07:47;;;;;;;9.30;3.58;;;19.10;99.90;;;;;;5036580;28;20172;-58
2023/07/13 07:10:12;;;;;;;10.70;4.03;;;19.10;99.90;;;;;;5036821;28;20268;-59
2023/07/13 07:12:38;;;;;;;13.95;3.80;;;19.10;99.90;;;;;;5035960;28;20183;-58
2023/07/13 07:15:04;;;;;;;10.35;3.42;;;19.10;99.90;;;;;;5035655;28;20255;-58
2023/07/13 07:17:30;;;;;;;12.30;4.05;;;19.10;99.90;;;;;;5036525;28;20239;-58
2023/07/13 07:19:56;;;;;;;12.40;3.83;;;19.10;99.90;;;;;;5036870;28;20192;-58
2023/07/13 07:22:21;;;;;;;11.85;4.00;;;19.10;99.90;;;;;;5036840;28;20626;-58
2023/07/13 07:24:47;;;;;;;11.20;3.58;;;18.90;99.90;;;;;;5036930;28;20621;-58
2023/07/13 07:27:12;;;;;;;10.32;4.00;;;18.80;99.90;;;;;;5036842;28;20246;-58
2023/07/13 07:29:38;;;;;;;14.25;4.38;;;18.80;99.90;;;;;;5036511;28;20176;-58
2023/07/13 07:32:04;;;;;;;11.35;3.80;;;18.90;99.90;;;;;;5036387;28;20179;-58
2023/07/13 07:34:30;;;;;;;10.15;3.85;;;18.90;99.90;;;;;;5036354;28;20191;-58
2023/07/13 07:37:00;;;;;;;11.43;3.90;;;18.80;99.90;;;;;;5036446;28;20172;-58
2023/07/13 07:39:26;;;;;;;10.15;3.78;;;18.70;99.90;;;;;;5036248;28;20230;-58
2023/07/13 07:41:52;;;;;;;10.02;4.03;;;18.80;99.90;;;;;;5036267;28;20215;-58
2023/07/13 07:44:17;;;;;;;12.30;3.88;;;19.10;99.90;;;;;;5049679;28;20184;-58
2023/07/13 07:46:43;;;;;;;13.88;4.13;;;19.20;99.90;;;;;;5055912;28;20248;-58
2023/07/13 07:49:09;;;;;;;11.02;4.30;;;19.30;99.90;;;;;;5056015;28;20563;-58
2023/07/13 07:51:34;;;;;;;12.38;4.03;;;19.20;99.90;;;;;;5056025;28;20198;-58
2023/07/13 07:54:00;;;;;;;13.05;4.15;;;19.40;99.90;;;;;;5055977;28;20179;-58
2023/07/13 07:56:26;;;;;;;9.80;3.90;;;19.70;99.90;;;;;;5056001;28;20167;-59
2023/07/13 07:58:51;;;;;;;8.68;3.80;;;19.90;99.90;;;;;;5055831;28;20265;-58
2023/07/13 08:01:17;;;;;;;9.20;3.95;;;20.00;99.90;;;;;;5055875;28;20262;-58
2023/07/13 08:03:43;;;;;;;7.85;3.45;;;20.20;99.90;;;;;;5055651;28;20210;-58
2023/07/13 08:06:08;;;;;;;10.75;4.00;;;20.40;99.90;;;;;;5055715;28;20171;-59
2023/07/13 08:08:35;;;;;;;9.15;3.13;;;20.50;99.90;;;;;;5037898;28;20274;-58
2023/07/13 08:11:05;;;;;;;13.25;4.18;;;20.60;99.90;;;;;;5055636;28;20191;-58
2023/07/13 08:13:31;;;;;;;9.00;3.53;;;20.80;99.90;;;;;;5054559;28;20529;-58
2023/07/13 08:15:57;;;;;;;10.00;3.40;;;21.00;99.90;;;;;;5055577;28;20175;-58
2023/07/13 08:18:22;;;;;;;11.10;3.55;;;21.20;99.90;;;;;;5055098;28;20230;-58
2023/07/13 08:20:48;;;;;;;11.10;4.00;;;21.30;99.90;;;;;;5055497;28;20660;-59
2023/07/13 08:23:14;;;;;;;12.85;3.47;;;21.40;99.90;;;;;;5055518;28;20180;-59
2023/07/13 08:25:39;;;;;;;9.85;3.78;;;21.50;99.90;;;;;;5055449;28;20218;-58
2023/07/13 08:28:05;;;;;;;11.43;3.50;;;21.50;99.90;;;;;;5055380;28;20190;-58
2023/07/13 08:30:30;;;;;;;12.07;3.75;;;21.50;99.90;;;;;;5055340;28;20179;-58
2023/07/13 08:32:56;;;;;;;7.53;2.83;;;21.60;99.90;;;;;;5055263;28;20185;-58
2023/07/13 08:35:22;;;;;;;9.00;2.95;;;21.50;99.90;;;;;;5055298;28;20209;-58
2023/07/13 08:37:47;;;;;;;9.07;2.95;;;21.50;99.90;;;;;;5055226;28;20178;-58
2023/07/13 08:40:13;;;;;;;7.53;2.80;;;21.80;99.90;;;;;;5054499;28;20215;-58
2023/07/13 08:42:44;;;;;;;8.30;2.92;;;21.60;99.90;;;;;;5049049;28;20187;-58
2023/07/13 08:45:28;;;;;;;9.38;3.30;;;21.60;99.90;;;;;;5052910;28;20189;-58
2023/07/13 08:47:59;;;;;;;7.70;2.70;;;21.30;99.90;;;;;;5054994;28;20190;-59
2023/07/13 08:50:34;;;;;;;7.05;2.70;;;21.60;99.90;;;;;;5054938;28;20177;-59
2023/07/13 08:53:02;;;;;;;9.25;3.00;;;21.80;99.90;;;;;;5054981;28;20204;-59
2023/07/13 08:55:33;;;;;;;10.55;2.92;;;22.10;99.90;;;;;;5054867;28;20167;-59
2023/07/13 08:58:09;;;;;;;10.82;3.00;;;22.30;99.90;;;;;;5054746;28;20156;-59
2023/07/13 09:00:41;;;;;;;9.60;2.60;;;22.70;99.90;;;;;;5054480;28;20195;-59
2023/07/13 09:03:18;;;;;;;8.20;2.78;;;22.90;99.90;;;;;;5054747;28;20171;-58
2023/07/13 09:05:47;;;;;;;7.65;2.78;;;23.30;99.90;;;;;;5054643;28;20714;-59
2023/07/13 09:08:38;;;;;;;8.52;3.00;;;23.10;99.90;;;;;;5054663;28;20179;-59
2023/07/13 09:11:34;;;;;;;6.47;2.50;;;23.40;99.90;;;;;;5054612;28;20159;-59
2023/07/13 09:14:36;;;;;;;9.25;2.60;;;23.30;99.90;;;;;;5054624;28;20159;-59
2023/07/13 09:17:05;;;;;;;8.35;2.75;;;23.20;99.90;;;;;;5054265;28;20186;-58
2023/07/13 09:19:33;;;;;;;7.55;2.80;;;22.80;99.90;;;;;;5054262;28;20199;-59
2023/07/13 09:22:01;;;;;;;9.32;2.90;;;22.60;99.90;;;;;;5054318;28;20285;-59
2023/07/13 09:24:32;;;;;;;7.75;2.42;;;22.90;99.90;;;;;;5053293;28;20171;-59
2023/07/13 09:26:58;;;;;;;9.07;2.55;;;23.20;99.90;;;;;;5054035;28;20317;-59
2023/07/13 09:29:34;;;;;;;7.00;2.40;;;23.40;99.90;;;;;;5054160;28;20201;-59
2023/07/13 09:32:06;;;;;;;6.93;2.78;;;23.60;99.90;;;;;;5054228;28;20166;-59
2023/07/13 09:34:33;;;;;;;8.50;2.97;;;23.50;99.90;;;;;;5054074;28;20174;-59
2023/07/13 09:36:59;;;;;;;5.45;2.35;;;23.20;99.90;;;;;;5054083;28;20180;-59
2023/07/13 09:39:29;;;;;;;4.65;2.20;;;22.60;99.90;;;;;;5053966;28;20635;-59
2023/07/13 09:42:17;;;;;;;8.10;2.58;;;22.30;99.90;;;;;;5054110;28;20155;-59
2023/07/13 09:44:58;;;;;;;6.05;2.50;;;22.10;99.90;;;;;;5053981;28;20152;-59
2023/07/13 09:47:25;;;;;;;5.13;2.28;;;21.90;99.90;;;;;;5053832;28;20167;-59
2023/07/13 09:50:03;;;;;;;5.82;2.20;;;21.60;99.90;;;;;;5053756;28;20189;-59
2023/07/13 09:52:41;;;;;;;7.43;2.53;;;21.50;99.90;;;;;;5053814;28;20577;-59
2023/07/13 09:55:35;;;;;;;6.28;2.30;;;21.50;99.90;;;;;;5053792;28;20167;-59
2023/07/13 09:58:15;;;;;;;7.13;2.47;;;21.50;99.90;;;;;;5053739;28;20513;-59
2023/07/13 10:00:43;;;;;;;4.75;2.00;;;21.50;99.90;;;;;;5053637;28;20190;-59
2023/07/13 10:03:21;;;;;;;7.15;2.35;;;21.30;99.90;;;;;;5053633;28;20264;-58
2023/07/13 10:05:50;;;;;;;7.00;2.20;;;21.50;99.90;;;;;;5053517;28;20198;-58
2023/07/13 10:08:38;;;;;;;4.57;1.90;;;21.60;99.90;;;;;;5053445;28;20171;-59
2023/07/13 10:11:17;;;;;;;4.88;2.00;;;21.90;99.90;;;;;;5053539;28;20163;-59
2023/07/13 10:13:59;;;;;;;2.80;2.00;;;22.20;99.90;;;;;;5053033;28;20624;-59
2023/07/13 10:16:33;;;;;;;4.93;2.22;;;22.50;99.90;;;;;;5053228;28;20624;-59
2023/07/13 10:19:12;;;;;;;6.53;2.05;;;22.50;99.90;;;;;;5053498;28;20870;-58
2023/07/13 10:22:14;;;;;;;7.28;1.90;;;22.50;99.90;;;;;;5053499;28;20623;-59
2023/07/13 10:24:41;;;;;;;5.35;1.95;;;22.40;99.90;;;;;;5022544;28;20193;-59
2023/07/13 10:27:26;;;;;;;3.22;1.90;;;22.40;99.90;;;;;;5053318;28;20178;-59
2023/07/13 10:30:12;;;;;;;3.95;1.90;;;22.30;99.90;;;;;;5053399;28;20161;-59
2023/07/13 10:32:38;;;;;;;4.88;2.08;;;22.20;99.90;;;;;;5052422;28;20214;-59
2023/07/13 10:35:05;;;;;;;4.60;2.03;;;22.00;99.90;;;;;;5053580;28;20176;-59
2023/07/13 10:37:44;;;;;;;3.10;2.00;;;22.10;99.90;;;;;;5056824;28;20536;-59
2023/07/13 10:40:25;;;;;;;4.45;1.88;;;22.50;99.90;;;;;;5057425;28;20227;-59
2023/07/13 10:42:55;;;;;;;4.15;2.08;;;22.60;99.90;;;;;;5057368;28;20169;-59
2023/07/13 10:45:23;;;;;;;6.70;2.17;;;22.70;99.90;;;;;;5057394;28;20186;-59
2023/07/13 10:47:53;;;;;;;5.45;1.58;;;22.80;99.90;;;;;;5057212;28;20473;-59
2023/07/13 10:50:30;;;;;;;5.53;1.92;;;23.10;99.90;;;;;;5056994;28;20235;-59
2023/07/13 10:53:03;;;;;;;4.00;1.52;;;23.30;99.90;;;;;;5056848;28;20524;-59
2023/07/13 10:55:53;;;;;;;2.55;1.50;;;23.50;99.90;;;;;;5056811;28;20689;-59
2023/07/13 10:58:36;;;;;;;3.10;1.73;;;23.40;99.90;;;;;;5057097;28;20156;-59
2023/07/13 11:01:13;;;;;;;4.43;1.73;;;23.20;99.90;;;;;;5056924;28;20593;-59
2023/07/13 11:03:45;;;;;;;4.35;1.67;;;23.10;99.90;;;;;;5056923;28;20167;-59
2023/07/13 11:06:16;;;;;;;3.95;1.60;;;23.00;99.90;;;;;;5057006;28;20159;-59
2023/07/13 11:08:47;;;;;;;3.72;1.50;;;22.70;99.90;;;;;;5056867;28;20513;-59
2023/07/13 11:11:25;;;;;;;5.70;1.88;;;22.50;99.90;;;;;;5056807;28;20171;-59
2023/07/13 11:13:50;;;;;;;4.78;2.53;;;22.40;99.90;;;;;;5056689;28;20173;-59
2023/07/13 11:16:22;;;;;;;3.58;2.33;;;22.10;99.90;;;;;;5056755;28;20254;-59
2023/07/13 11:18:52;;;;;;;4.55;2.50;;;21.70;99.90;;;;;;5056732;28;20223;-59
2023/07/13 11:21:21;;;;;;;5.35;2.55;;;20.70;99.90;;;;;;5056910;28;20235;-58
2023/07/13 11:24:11;;;;;;;5.72;2.88;;;19.80;99.90;;;;;;5056628;28;20233;-59
2023/07/13 11:26:45;;;;;;;6.32;3.05;;;19.20;99.90;;;;;;5056620;28;20668;-59
2023/07/13 11:29:17;;;;;;;6.65;3.45;;;19.20;99.90;;;;;;5056535;28;20253;-58
2023/07/13 11:31:51;;;;;;;10.23;4.03;;;19.00;99.90;;;;;;5056352;28;20209;-59
2023/07/13 11:34:21;;;;;;;5.72;4.20;;;19.00;99.90;;;;;;5056407;28;20621;-58
2023/07/13 11:36:48;;;;;;;7.85;4.35;;;18.80;99.90;;;;;;5056388;28;20557;-59
2023/07/13 11:39:19;;;;;;;9.50;4.72;;;18.70;99.90;;;;;;5055719;28;20207;-59
2023/07/13 11:41:51;;;;;;;7.90;4.22;;;18.60;99.90;;;;;;5056239;28;20203;-59
2023/07/13 11:44:22;;;;;;;10.52;4.35;;;18.40;99.90;;;;;;5056321;28;20168;-59
2023/07/13 11:46:51;;;;;;;8.60;3.95;;;18.40;99.90;;;;;;5055788;28;20681;-59
2023/07/13 11:49:25;;;;;;;7.28;3.97;;;18.40;99.90;;;;;;5055306;28;20175;-59
2023/07/13 11:51:55;;;;;;;9.18;4.28;;;18.50;99.90;;;;;;5055859;28;20577;-59
2023/07/13 11:54:29;;;;;;;7.03;3.55;;;18.50;99.90;;;;;;5056309;28;20175;-58
2023/07/13 11:57:00;;;;;;;5.40;3.65;;;18.50;99.90;;;;;;5056133;28;20609;-58
2023/07/13 11:59:26;;;;;;;5.72;2.90;;;18.50;99.90;;;;;;5055917;28;20198;-58
2023/07/13 12:01:54;;;;;;;4.32;2.97;;;18.50;99.90;;;;;;5055899;28;20167;-58
2023/07/13 12:04:27;;;;;;;4.47;2.92;;;18.70;99.90;;;;;;5055864;28;20249;-58
2023/07/13 12:07:03;;;;;;;5.88;3.00;;;18.70;99.90;;;;;;5055996;28;20301;-58
2023/07/13 12:09:30;;;;;;;5.32;2.75;;;18.70;99.90;;;;;;5055638;28;20163;-58
2023/07/13 12:11:59;;;;;;;4.53;2.60;;;18.70;99.90;;;;;;5055366;28;20510;-58
2023/07/13 12:14:26;;;;;;;3.95;2.78;;;18.70;99.90;;;;;;5055694;28;20175;-59
2023/07/13 12:16:52;;;;;;;3.97;2.45;;;18.70;99.90;;;;;;5055685;28;20172;-58
2023/07/13 12:19:22;;;;;;;4.70;2.90;;;18.80;99.90;;;;;;5055712;28;20222;-58
2023/07/13 12:21:49;;;;;;;4.22;2.75;;;18.90;99.90;;;;;;5055624;28;20626;-58
2023/07/13 12:24:20;;;;;;;4.72;2.78;;;18.90;99.90;;;;;;5055509;28;20207;-58
2023/07/13 12:26:53;;;;;;;4.15;2.40;;;19.20;99.90;;;;;;5055587;28;20265;-58
2023/07/13 12:29:19;;;;;;;4.13;2.50;;;19.30;99.90;;;;;;5055440;28;20175;-58
2023/07/13 12:31:47;;;;;;;6.47;2.95;;;19.40;99.90;;;;;;5055115;28;20179;-58
2023/07/13 12:34:16;;;;;;;4.22;2.58;;;19.40;99.90;;;;;;5055235;28;20639;-58
2023/07/13 12:36:53;;;;;;;3.78;2.92;;;19.20;99.90;;;;;;5055283;28;20621;-58
2023/07/13 12:39:45;;;;;;;7.43;2.88;;;19.50;99.90;;;;;;5055289;28;20297;-58
2023/07/13 12:42:26;;;;;;;5.10;3.08;;;19.40;99.90;;;;;;5050060;28;20271;-58
2023/07/13 12:44:56;;;;;;;5.68;3.35;;;19.50;99.90;;;;;;5055094;28;20171;-58
2023/07/13 12:47:22;;;;;;;6.60;3.10;;;19.70;99.90;;;;;;5055224;28;20167;-58
2023/07/13 12:49:57;;;;;;;6.70;3.00;;;19.60;99.90;;;;;;5054977;28;20185;-59
2023/07/13 12:52:33;;;;;;;5.22;3.05;;;20.00;99.90;;;;;;5054990;28;20159;-58